Time;durP1;ratioP1;P1;durP2;ratioP2;P2;SDS_P1;SDS_P2;PMS_P1;PMS_P2;Temp;Humidity;BMP_temperature;BMP_pressure;BME280_temperature;BME280_humidity;BME280_pressure;Samples;Min_cycle;Max_cycle;Signal;HPM_P1;HPM_P2
2021/10/05 00:00:31;;;;;;;7.20;4.22;;;;;;;;;;4997770;28;20034;-81
2021/10/05 00:02:57;;;;;;;4.18;3.45;;;;;;;;;;5002173;28;20157;-83
2021/10/05 00:05:23;;;;;;;10.15;4.35;;;;;;;;;;4971126;28;20523;-83
2021/10/05 00:07:50;;;;;;;7.90;4.65;;;;;;;;;;4998245;28;20052;-80
2021/10/05 00:10:16;;;;;;;8.13;4.22;;;;;;;;;;4997505;28;20034;-81
2021/10/05 00:12:42;;;;;;;4.97;4.22;;;;;;;;;;5003009;28;20029;-81
2021/10/05 00:15:09;;;;;;;10.02;4.70;;;;;;;;;;5010244;28;20049;-80
2021/10/05 00:17:35;;;;;;;9.02;4.35;;;;;;;;;;4989610;28;20113;-81
2021/10/05 00:20:02;;;;;;;11.27;5.35;;;;;;;;;;4992591;28;20033;-81
2021/10/05 00:22:28;;;;;;;6.55;4.30;;;;;;;;;;4988275;28;20033;-81
2021/10/05 00:24:54;;;;;;;15.52;4.70;;;;;;;;;;4974615;28;20122;-79
2021/10/05 00:27:20;;;;;;;8.05;3.78;;;;;;;;;;4991732;28;20026;-81
2021/10/05 00:29:46;;;;;;;6.68;3.47;;;;;;;;;;4999808;28;20015;-83
2021/10/05 00:32:12;;;;;;;5.03;3.60;;;;;;;;;;5003786;28;20403;-83
2021/10/05 00:34:37;;;;;;;5.63;3.80;;;;;;;;;;4990251;28;20041;-83
2021/10/05 00:37:04;;;;;;;6.85;3.80;;;;;;;;;;4989763;28;20034;-82
2021/10/05 00:39:30;;;;;;;11.15;4.60;;;;;;;;;;5005552;28;20026;-83
2021/10/05 00:41:56;;;;;;;7.07;4.32;;;;;;;;;;5027098;28;20032;-81
2021/10/05 00:44:32;;;;;;;11.65;4.70;;;;;;;;;;4988828;28;20058;-81
2021/10/05 00:47:02;;;;;;;12.65;4.60;;;;;;;;;;4970362;28;20487;-82
2021/10/05 00:49:28;;;;;;;6.72;4.57;;;;;;;;;;4996906;28;20077;-81
2021/10/05 00:51:55;;;;;;;5.05;4.03;;;;;;;;;;5003962;28;20038;-81
2021/10/05 00:54:21;;;;;;;8.15;4.70;;;;;;;;;;5004487;28;20402;-82
2021/10/05 00:56:47;;;;;;;8.30;5.10;;;;;;;;;;4969789;28;20034;-81
2021/10/05 00:59:13;;;;;;;6.22;4.57;;;;;;;;;;4984987;28;20037;-81
2021/10/05 01:01:39;;;;;;;8.57;4.90;;;;;;;;;;4998597;28;20033;-81
2021/10/05 01:04:05;;;;;;;11.15;5.95;;;;;;;;;;5020652;28;20053;-81
2021/10/05 01:06:31;;;;;;;6.28;4.90;;;;;;;;;;4984486;28;20036;-81
2021/10/05 01:08:57;;;;;;;7.75;5.10;;;;;;;;;;5004512;28;20026;-81
2021/10/05 01:11:24;;;;;;;6.38;5.10;;;;;;;;;;4982598;28;20026;-82
2021/10/05 01:13:50;;;;;;;8.73;5.20;;;;;;;;;;4989049;28;20037;-81
2021/10/05 01:16:19;;;;;;;7.10;5.78;;;;;;;;;;5000330;28;20033;-81
2021/10/05 01:18:48;;;;;;;8.40;5.88;;;;;;;;;;4990794;28;20033;-81
2021/10/05 01:21:14;;;;;;;11.02;5.65;;;;;;;;;;5004944;28;20038;-81
2021/10/05 01:23:40;;;;;;;13.63;6.40;;;;;;;;;;4992063;28;20097;-82
2021/10/05 01:26:06;;;;;;;10.95;5.88;;;;;;;;;;4984152;28;20315;-82
2021/10/05 01:28:32;;;;;;;17.75;6.75;;;;;;;;;;4995538;28;20033;-81
2021/10/05 01:30:59;;;;;;;11.95;6.18;;;;;;;;;;4987741;28;20026;-81
2021/10/05 01:33:26;;;;;;;13.60;6.25;;;;;;;;;;5001296;28;20394;-81
2021/10/05 01:35:52;;;;;;;8.15;5.75;;;;;;;;;;4984626;28;20027;-83
2021/10/05 01:38:18;;;;;;;7.65;6.22;;;;;;;;;;5001321;28;20394;-83
2021/10/05 01:40:44;;;;;;;10.52;6.18;;;;;;;;;;4983873;28;20022;-84
2021/10/05 01:43:10;;;;;;;7.32;5.55;;;;;;;;;;4983621;28;20065;-84
2021/10/05 01:45:40;;;;;;;15.43;6.95;;;;;;;;;;5001602;28;20039;-82
2021/10/05 01:48:07;;;;;;;11.52;6.70;;;;;;;;;;5004538;28;20474;-84
2021/10/05 01:50:33;;;;;;;9.18;6.25;;;;;;;;;;4986734;28;20506;-84
2021/10/05 01:52:59;;;;;;;9.63;5.65;;;;;;;;;;5003277;28;20030;-84
2021/10/05 01:55:25;;;;;;;10.00;6.40;;;;;;;;;;4984159;28;20045;-84
2021/10/05 01:57:52;;;;;;;11.32;5.82;;;;;;;;;;4973999;28;20040;-84
2021/10/05 02:00:18;;;;;;;11.93;7.15;;;;;;;;;;5020094;28;20038;-83
2021/10/05 02:02:45;;;;;;;9.45;7.43;;;;;;;;;;4987919;28;20029;-84
2021/10/05 02:05:11;;;;;;;10.20;7.28;;;;;;;;;;5002565;28;20030;-81
2021/10/05 02:07:37;;;;;;;10.32;7.50;;;;;;;;;;5001510;28;20080;-81
2021/10/05 02:10:05;;;;;;;10.57;8.30;;;;;;;;;;5008950;28;20026;-82
2021/10/05 02:12:31;;;;;;;10.27;7.25;;;;;;;;;;4996209;28;20021;-82
2021/10/05 02:14:57;;;;;;;10.90;8.23;;;;;;;;;;4986856;28;20394;-84
2021/10/05 02:17:23;;;;;;;15.68;8.77;;;;;;;;;;4976726;28;20027;-84
2021/10/05 02:19:49;;;;;;;15.10;8.98;;;;;;;;;;5002590;28;20034;-83
2021/10/05 02:22:15;;;;;;;19.58;10.18;;;;;;;;;;5010909;28;20037;-83
2021/10/05 02:24:45;;;;;;;11.57;9.18;;;;;;;;;;5002711;28;20030;-84
2021/10/05 02:27:12;;;;;;;13.80;9.32;;;;;;;;;;5020104;28;20029;-84
2021/10/05 02:29:38;;;;;;;14.63;10.10;;;;;;;;;;5020371;28;20022;-84
2021/10/05 02:32:08;;;;;;;12.55;9.43;;;;;;;;;;5020580;28;20038;-84
2021/10/05 02:34:35;;;;;;;13.98;9.77;;;;;;;;;;4984287;28;20049;-83
2021/10/05 02:37:01;;;;;;;12.25;9.40;;;;;;;;;;5018717;28;20056;-83
2021/10/05 02:39:27;;;;;;;13.63;9.85;;;;;;;;;;5018972;28;20518;-83
2021/10/05 02:41:53;;;;;;;13.07;9.32;;;;;;;;;;5020142;28;20022;-83
2021/10/05 02:44:19;;;;;;;12.27;9.57;;;;;;;;;;5019298;28;20029;-84
2021/10/05 02:46:46;;;;;;;15.10;10.32;;;;;;;;;;5005202;28;20093;-84
2021/10/05 02:49:12;;;;;;;13.70;9.55;;;;;;;;;;5006988;28;20553;-84
2021/10/05 02:51:38;;;;;;;14.57;10.23;;;;;;;;;;5000167;28;20080;-85
2021/10/05 02:54:04;;;;;;;14.38;9.80;;;;;;;;;;4998780;28;20034;-85
2021/10/05 02:56:31;;;;;;;14.55;9.13;;;;;;;;;;4985464;28;20026;-85
2021/10/05 02:58:57;;;;;;;16.30;10.57;;;;;;;;;;5003383;28;20048;-85
2021/10/05 03:01:23;;;;;;;17.48;10.82;;;;;;;;;;4981443;28;20031;-85
2021/10/05 03:03:49;;;;;;;17.00;10.27;;;;;;;;;;4995353;28;20040;-85
2021/10/05 03:06:15;;;;;;;17.17;11.18;;;;;;;;;;5000668;28;20065;-85
2021/10/05 03:08:42;;;;;;;19.75;11.98;;;;;;;;;;4984407;28;20026;-85
2021/10/05 03:11:08;;;;;;;14.55;11.25;;;;;;;;;;4987318;28;20391;-85
2021/10/05 03:13:35;;;;;;;16.25;12.10;;;;;;;;;;4993009;28;20100;-84
2021/10/05 03:16:07;;;;;;;20.45;11.90;;;;;;;;;;5000850;28;20029;-85
2021/10/05 03:18:34;;;;;;;19.63;11.70;;;;;;;;;;5000581;28;20018;-85
2021/10/05 03:21:00;;;;;;;17.63;12.45;;;;;;;;;;4985829;28;20081;-84
2021/10/05 03:23:26;;;;;;;18.33;11.68;;;;;;;;;;4984524;28;20053;-85
2021/10/05 03:25:52;;;;;;;18.75;12.70;;;;;;;;;;4999873;28;20068;-85
2021/10/05 03:28:18;;;;;;;20.85;13.00;;;;;;;;;;5000960;28;20026;-85
2021/10/05 03:30:44;;;;;;;20.20;12.63;;;;;;;;;;5000741;28;20036;-83
2021/10/05 03:33:11;;;;;;;19.48;12.27;;;;;;;;;;5001705;28;20037;-84
2021/10/05 03:35:37;;;;;;;20.88;13.38;;;;;;;;;;5000983;28;20041;-86
2021/10/05 03:38:04;;;;;;;18.77;11.75;;;;;;;;;;4979646;28;20411;-86
2021/10/05 03:40:30;;;;;;;25.35;12.85;;;;;;;;;;4982548;28;20092;-86
2021/10/05 03:42:56;;;;;;;19.77;12.20;;;;;;;;;;4981706;28;20026;-86
2021/10/05 03:45:22;;;;;;;22.60;12.90;;;;;;;;;;5007321;28;20030;-86
2021/10/05 03:47:48;;;;;;;23.40;12.77;;;;;;;;;;4986786;28;20037;-86
2021/10/05 03:50:14;;;;;;;20.83;13.88;;;;;;;;;;5003672;28;20033;-86
2021/10/05 03:52:41;;;;;;;22.05;13.27;;;;;;;;;;5003662;28;20053;-86
2021/10/05 03:55:08;;;;;;;20.08;12.95;;;;;;;;;;5022309;28;20053;-85
2021/10/05 03:57:34;;;;;;;19.13;11.85;;;;;;;;;;5023244;28;20137;-86
2021/10/05 04:00:00;;;;;;;24.13;12.90;;;;;;;;;;4988354;28;20038;-86
2021/10/05 04:02:26;;;;;;;20.40;12.75;;;;;;;;;;5004577;28;20540;-86
2021/10/05 04:04:53;;;;;;;21.23;12.88;;;;;;;;;;5003232;28;20083;-85
2021/10/05 04:07:19;;;;;;;17.67;12.38;;;;;;;;;;5003266;28;20394;-85
2021/10/05 04:09:44;;;;;;;27.30;13.85;;;;;;;;;;5005745;28;20029;-85
2021/10/05 04:12:11;;;;;;;25.80;14.63;;;;;;;;;;5010890;28;20030;-84
2021/10/05 04:14:37;;;;;;;24.40;14.52;;;;;;;;;;4994087;28;20048;-85
2021/10/05 04:17:03;;;;;;;23.75;14.05;;;;;;;;;;5010311;28;20037;-85
2021/10/05 04:19:29;;;;;;;27.33;14.40;;;;;;;;;;5028197;28;20025;-85
2021/10/05 04:21:55;;;;;;;24.40;14.05;;;;;;;;;;5027817;28;20030;-84
2021/10/05 04:24:21;;;;;;;22.67;14.63;;;;;;;;;;5027168;28;20113;-84
2021/10/05 04:26:47;;;;;;;22.50;13.27;;;;;;;;;;5003794;28;20145;-84
2021/10/05 04:29:13;;;;;;;22.92;13.75;;;;;;;;;;5016821;28;20033;-85
2021/10/05 04:31:41;;;;;;;21.77;13.00;;;;;;;;;;4998923;28;20672;-84
2021/10/05 04:34:07;;;;;;;22.02;13.98;;;;;;;;;;4999400;28;20026;-84
2021/10/05 04:36:33;;;;;;;22.88;13.93;;;;;;;;;;4999320;28;20025;-85
2021/10/05 04:39:00;;;;;;;23.17;13.90;;;;;;;;;;5006178;28;20242;-83
2021/10/05 04:41:26;;;;;;;22.65;13.43;;;;;;;;;;5018921;28;20083;-84
2021/10/05 04:43:52;;;;;;;24.65;13.95;;;;;;;;;;4998863;28;20033;-84
2021/10/05 04:46:18;;;;;;;26.38;14.20;;;;;;;;;;4998706;28;20033;-84
2021/10/05 04:48:44;;;;;;;22.95;12.77;;;;;;;;;;4998558;28;20037;-84
2021/10/05 04:51:10;;;;;;;22.52;13.32;;;;;;;;;;4981895;28;20065;-85
2021/10/05 04:53:36;;;;;;;18.77;11.98;;;;;;;;;;5016767;28;20022;-84
2021/10/05 04:56:02;;;;;;;22.13;13.52;;;;;;;;;;5001833;28;20033;-84
2021/10/05 04:58:29;;;;;;;23.60;13.15;;;;;;;;;;5014638;23;20040;-79
2021/10/05 05:00:55;;;;;;;24.25;13.13;;;;;;;;;;5020838;28;20026;-80
2021/10/05 05:03:22;;;;;;;25.40;15.00;;;;;;;;;;5038940;28;20075;-79
2021/10/05 05:05:48;;;;;;;26.00;13.63;;;;;;;;;;5022128;28;20041;-80
2021/10/05 05:08:14;;;;;;;28.67;16.25;;;;;;;;;;5040696;28;20070;-80
2021/10/05 05:10:40;;;;;;;30.42;17.20;;;;;;;;;;5040618;28;20055;-81
2021/10/05 05:13:06;;;;;;;30.13;17.10;;;;;;;;;;5037916;28;20031;-79
2021/10/05 05:15:32;;;;;;;32.97;17.98;;;;;;;;;;5053394;28;20059;-79
2021/10/05 05:17:58;;;;;;;32.00;17.35;;;;;;;;;;5068463;28;20036;-81
2021/10/05 05:20:25;;;;;;;31.65;17.60;;;;;;;;;;5062951;28;20107;-81
2021/10/05 05:22:51;;;;;;;40.03;19.08;;;;;;;;;;5052296;28;20115;-81
2021/10/05 05:25:17;;;;;;;33.42;17.88;;;;;;;;;;5038216;28;20033;-81
2021/10/05 05:27:43;;;;;;;31.20;16.42;;;;;;;;;;5042783;28;20103;-80
2021/10/05 05:30:09;;;;;;;32.88;17.38;;;;;;;;;;5057488;28;20037;-80
2021/10/05 05:32:35;;;;;;;32.60;17.63;;;;;;;;;;5053943;28;20041;-80
2021/10/05 05:35:02;;;;;;;34.00;16.88;;;;;;;;;;5037960;28;20386;-80
2021/10/05 05:37:28;;;;;;;33.83;16.92;;;;;;;;;;5021115;28;20098;-80
2021/10/05 05:39:54;;;;;;;37.03;17.50;;;;;;;;;;5037273;28;20049;-80
2021/10/05 05:42:20;;;;;;;34.30;15.98;;;;;;;;;;5039626;28;20349;-80
2021/10/05 05:44:46;;;;;;;32.65;16.45;;;;;;;;;;5058232;28;20086;-80
2021/10/05 05:47:12;;;;;;;40.90;17.10;;;;;;;;;;5039634;28;20499;-81
2021/10/05 05:49:38;;;;;;;37.78;17.10;;;;;;;;;;5045339;28;20105;-80
2021/10/05 05:52:04;;;;;;;37.42;17.15;;;;;;;;;;5037793;28;20112;-79
2021/10/05 05:54:30;;;;;;;34.95;16.17;;;;;;;;;;5057695;28;20416;-80
2021/10/05 05:56:56;;;;;;;35.92;18.00;;;;;;;;;;5058672;28;20075;-80
2021/10/05 05:59:22;;;;;;;37.75;18.52;;;;;;;;;;5038709;28;20040;-80
2021/10/05 06:01:48;;;;;;;35.72;17.77;;;;;;;;;;5037678;28;20036;-81
2021/10/05 06:04:14;;;;;;;31.05;17.25;;;;;;;;;;5038020;28;20401;-80
2021/10/05 06:06:40;;;;;;;29.50;16.65;;;;;;;;;;5058725;28;20033;-80
2021/10/05 06:09:06;;;;;;;30.45;16.30;;;;;;;;;;5041545;28;20052;-80
2021/10/05 06:11:35;;;;;;;26.75;16.13;;;;;;;;;;5038615;28;20025;-80
2021/10/05 06:14:01;;;;;;;28.30;14.90;;;;;;;;;;5036512;28;20102;-80
2021/10/05 06:16:27;;;;;;;28.13;15.23;;;;;;;;;;5058684;28;20033;-80
2021/10/05 06:18:53;;;;;;;30.25;15.50;;;;;;;;;;5043401;28;20037;-80
2021/10/05 06:21:19;;;;;;;26.23;14.73;;;;;;;;;;5023582;28;20686;-80
2021/10/05 06:23:45;;;;;;;26.52;13.88;;;;;;;;;;5050105;28;20033;-80
2021/10/05 06:26:11;;;;;;;21.27;13.13;;;;;;;;;;5057307;28;20059;-80
2021/10/05 06:28:37;;;;;;;27.70;14.80;;;;;;;;;;5026841;28;20025;-80
2021/10/05 06:31:03;;;;;;;25.30;14.07;;;;;;;;;;5034998;28;20052;-80
2021/10/05 06:33:30;;;;;;;29.10;14.60;;;;;;;;;;5047403;28;20021;-80
2021/10/05 06:35:56;;;;;;;32.15;16.40;;;;;;;;;;5058633;28;20051;-80
2021/10/05 06:38:22;;;;;;;32.35;15.05;;;;;;;;;;5056545;28;20389;-79
2021/10/05 06:40:48;;;;;;;32.45;13.93;;;;;;;;;;5054297;28;20024;-79
2021/10/05 06:43:14;;;;;;;30.30;14.00;;;;;;;;;;5054402;28;20025;-79
2021/10/05 06:45:41;;;;;;;29.30;13.43;;;;;;;;;;5037055;28;20079;-80
2021/10/05 06:48:07;;;;;;;29.08;14.45;;;;;;;;;;5054073;28;20473;-80
2021/10/05 06:50:34;;;;;;;26.27;13.73;;;;;;;;;;5054526;28;20025;-80
2021/10/05 06:53:01;;;;;;;26.30;13.13;;;;;;;;;;5043796;28;20400;-81
2021/10/05 06:55:27;;;;;;;24.13;12.98;;;;;;;;;;5055028;28;20048;-80
2021/10/05 06:57:53;;;;;;;25.20;13.27;;;;;;;;;;5056637;28;20028;-80
2021/10/05 07:00:19;;;;;;;23.92;12.90;;;;;;;;;;5055791;28;20037;-80
2021/10/05 07:02:46;;;;;;;21.95;11.95;;;;;;;;;;5055168;28;20013;-80
2021/10/05 07:05:13;;;;;;;26.48;12.27;;;;;;;;;;5038718;28;20055;-80
2021/10/05 07:07:43;;;;;;;21.50;11.80;;;;;;;;;;5051582;28;20021;-81
2021/10/05 07:10:10;;;;;;;19.73;11.80;;;;;;;;;;5037767;28;20028;-81
2021/10/05 07:12:36;;;;;;;16.00;10.15;;;;;;;;;;5041760;28;20497;-81
2021/10/05 07:15:07;;;;;;;16.25;10.82;;;;;;;;;;5018303;28;20036;-80
2021/10/05 07:17:33;;;;;;;16.17;9.60;;;;;;;;;;5040078;28;20705;-81
2021/10/05 07:19:59;;;;;;;15.27;9.68;;;;;;;;;;5022169;28;20060;-81
2021/10/05 07:22:25;;;;;;;13.60;9.48;;;;;;;;;;5038297;28;20072;-80
2021/10/05 07:24:51;;;;;;;15.55;9.48;;;;;;;;;;5056385;28;20032;-80
2021/10/05 07:27:18;;;;;;;16.48;10.82;;;;;;;;;;5036884;28;20493;-81
2021/10/05 07:29:44;;;;;;;16.15;10.50;;;;;;;;;;5017768;28;20459;-80
2021/10/05 07:32:10;;;;;;;15.68;10.40;;;;;;;;;;5037161;28;20437;-80
2021/10/05 07:34:36;;;;;;;17.30;10.45;;;;;;;;;;5056028;28;20036;-80
2021/10/05 07:37:02;;;;;;;14.70;10.27;;;;;;;;;;5038666;28;20029;-80
2021/10/05 07:39:28;;;;;;;15.23;10.15;;;;;;;;;;5035493;28;20034;-80
2021/10/05 07:41:54;;;;;;;15.75;10.10;;;;;;;;;;5015408;28;20025;-81
2021/10/05 07:44:20;;;;;;;16.63;11.52;;;;;;;;;;5036020;28;20060;-80
2021/10/05 07:46:47;;;;;;;15.73;10.80;;;;;;;;;;5018145;28;20172;-80
2021/10/05 07:49:13;;;;;;;16.83;11.23;;;;;;;;;;5052586;28;20834;-80
2021/10/05 07:51:39;;;;;;;14.52;10.18;;;;;;;;;;5055666;28;20487;-80
2021/10/05 07:54:05;;;;;;;11.70;8.85;;;;;;;;;;5023090;28;20022;-80
2021/10/05 07:56:32;;;;;;;12.73;8.60;;;;;;;;;;5036525;28;20029;-79
2021/10/05 07:58:58;;;;;;;8.75;6.80;;;;;;;;;;5034149;28;20060;-80
2021/10/05 08:01:24;;;;;;;10.75;7.32;;;;;;;;;;5041842;28;20033;-80
2021/10/05 08:03:50;;;;;;;9.95;7.22;;;;;;;;;;5056038;28;20040;-80
2021/10/05 08:06:16;;;;;;;7.97;6.20;;;;;;;;;;5039195;28;20025;-80
2021/10/05 08:08:44;;;;;;;9.60;6.55;;;;;;;;;;5043964;28;20044;-80
2021/10/05 08:11:10;;;;;;;9.18;6.88;;;;;;;;;;5037620;28;20081;-80
2021/10/05 08:13:36;;;;;;;8.43;6.72;;;;;;;;;;5033447;28;20112;-80
2021/10/05 08:16:02;;;;;;;8.68;6.80;;;;;;;;;;5061887;28;20031;-80
2021/10/05 08:18:28;;;;;;;9.20;6.32;;;;;;;;;;5048120;28;20065;-80
2021/10/05 08:20:54;;;;;;;9.35;7.07;;;;;;;;;;5042980;28;20077;-79
2021/10/05 08:23:20;;;;;;;10.77;7.30;;;;;;;;;;5045327;28;20494;-80
2021/10/05 08:25:46;;;;;;;9.00;6.63;;;;;;;;;;5055302;28;20029;-79
2021/10/05 08:28:13;;;;;;;8.60;6.70;;;;;;;;;;5050030;28;20040;-80
2021/10/05 08:30:39;;;;;;;8.65;6.60;;;;;;;;;;5018255;28;20116;-79
2021/10/05 08:33:05;;;;;;;9.45;6.70;;;;;;;;;;5037536;28;20084;-79
2021/10/05 08:35:32;;;;;;;7.85;6.75;;;;;;;;;;5043143;28;20113;-79
2021/10/05 08:37:59;;;;;;;7.75;6.35;;;;;;;;;;5029985;28;20045;-79
2021/10/05 08:40:25;;;;;;;7.10;6.03;;;;;;;;;;5037539;28;20043;-80
2021/10/05 08:42:51;;;;;;;7.65;5.30;;;;;;;;;;5049411;28;20027;-80
2021/10/05 08:45:18;;;;;;;7.70;5.80;;;;;;;;;;5040713;28;20025;-80
2021/10/05 08:47:44;;;;;;;6.88;5.05;;;;;;;;;;5053564;28;20028;-80
2021/10/05 08:50:11;;;;;;;7.07;4.80;;;;;;;;;;5037900;28;20112;-80
2021/10/05 08:52:38;;;;;;;6.75;5.28;;;;;;;;;;5050960;28;20036;-80
2021/10/05 08:55:05;;;;;;;7.38;4.55;;;;;;;;;;5044795;28;20066;-79
2021/10/05 08:57:31;;;;;;;5.05;4.28;;;;;;;;;;5056378;28;20026;-80
2021/10/05 08:59:58;;;;;;;5.97;4.35;;;;;;;;;;5041010;28;20034;-80
2021/10/05 09:02:24;;;;;;;5.05;3.90;;;;;;;;;;5048242;28;20091;-79
2021/10/05 09:04:55;;;;;;;4.72;3.80;;;;;;;;;;5046779;28;20026;-79
2021/10/05 09:07:25;;;;;;;4.05;3.17;;;;;;;;;;5041759;28;20025;-79
2021/10/05 09:09:58;;;;;;;5.28;3.05;;;;;;;;;;5034933;28;20021;-77
2021/10/05 09:12:29;;;;;;;4.30;3.33;;;;;;;;;;5020282;28;20029;-79
2021/10/05 09:14:55;;;;;;;3.28;2.70;;;;;;;;;;5055273;28;20021;-79
2021/10/05 09:17:26;;;;;;;3.75;3.13;;;;;;;;;;5052954;28;20064;-79
2021/10/05 09:19:52;;;;;;;2.53;2.00;;;;;;;;;;5055414;28;20017;-78
2021/10/05 09:22:20;;;;;;;3.45;2.28;;;;;;;;;;5054003;28;20112;-79
2021/10/05 09:24:47;;;;;;;3.05;2.05;;;;;;;;;;5018314;28;20504;-78
2021/10/05 09:27:14;;;;;;;3.20;1.98;;;;;;;;;;5036370;28;20375;-78
2021/10/05 09:29:40;;;;;;;1.80;1.58;;;;;;;;;;5049627;28;20018;-78
2021/10/05 09:32:09;;;;;;;3.20;1.40;;;;;;;;;;5059364;28;20030;-77
2021/10/05 09:34:41;;;;;;;2.10;1.08;;;;;;;;;;5013393;28;20052;-78
2021/10/05 09:37:07;;;;;;;2.25;0.85;;;;;;;;;;5025363;28;20018;-78
2021/10/05 09:39:42;;;;;;;1.70;0.82;;;;;;;;;;5028100;28;20057;-78
2021/10/05 09:42:08;;;;;;;1.58;0.98;;;;;;;;;;5038498;28;20187;-79
2021/10/05 09:44:34;;;;;;;2.33;0.90;;;;;;;;;;5058313;28;20028;-79
2021/10/05 09:47:00;;;;;;;0.65;0.60;;;;;;;;;;5057788;28;20416;-79
2021/10/05 09:49:26;;;;;;;0.80;0.57;;;;;;;;;;5043003;28;20035;-79
2021/10/05 09:52:05;;;;;;;1.15;0.70;;;;;;;;;;5040320;28;20034;-79
2021/10/05 09:54:31;;;;;;;2.15;0.80;;;;;;;;;;5039652;28;20083;-79
2021/10/05 09:56:57;;;;;;;1.27;0.65;;;;;;;;;;5057072;28;20025;-79
2021/10/05 09:59:23;;;;;;;1.67;0.75;;;;;;;;;;5037899;28;20406;-80
2021/10/05 10:01:49;;;;;;;1.55;1.00;;;;;;;;;;5037141;28;20497;-80
2021/10/05 10:04:16;;;;;;;1.13;0.90;;;;;;;;;;5054268;28;20387;-80
2021/10/05 10:06:42;;;;;;;1.02;0.70;;;;;;;;;;5038923;28;20033;-80
2021/10/05 10:09:09;;;;;;;0.90;0.70;;;;;;;;;;5021919;28;20033;-80
2021/10/05 10:11:35;;;;;;;1.33;0.63;;;;;;;;;;5037639;28;20025;-80
2021/10/05 10:14:01;;;;;;;1.38;0.70;;;;;;;;;;5037364;28;20423;-80
2021/10/05 10:16:27;;;;;;;0.77;0.75;;;;;;;;;;5037621;28;20100;-80
2021/10/05 10:18:53;;;;;;;0.93;0.82;;;;;;;;;;5053832;28;20096;-79
2021/10/05 10:21:27;;;;;;;0.95;0.85;;;;;;;;;;5041891;28;20055;-79
2021/10/05 10:24:13;;;;;;;1.55;0.93;;;;;;;;;;5041870;28;20087;-79
2021/10/05 10:26:43;;;;;;;1.75;0.80;;;;;;;;;;5036592;28;20079;-79
2021/10/05 10:29:11;;;;;;;0.85;0.65;;;;;;;;;;5052689;28;20040;-80
2021/10/05 10:31:39;;;;;;;0.63;0.50;;;;;;;;;;5022408;28;20036;-79
2021/10/05 10:34:05;;;;;;;3.05;0.68;;;;;;;;;;5040448;28;20051;-80
2021/10/05 10:36:34;;;;;;;1.05;0.52;;;;;;;;;;5018521;28;20029;-80
2021/10/05 10:39:19;;;;;;;2.35;0.80;;;;;;;;;;5036052;28;20031;-79
2021/10/05 10:42:06;;;;;;;1.98;0.75;;;;;;;;;;5039555;28;20037;-79
2021/10/05 10:44:37;;;;;;;4.43;0.63;;;;;;;;;;5057111;28;20033;-80
2021/10/05 10:47:09;;;;;;;1.17;0.60;;;;;;;;;;5045959;28;20040;-79
2021/10/05 10:49:35;;;;;;;0.57;0.40;;;;;;;;;;5021871;28;20092;-80
2021/10/05 10:52:01;;;;;;;2.03;0.60;;;;;;;;;;5024921;28;20033;-80
2021/10/05 10:54:27;;;;;;;0.50;0.40;;;;;;;;;;5037007;28;20045;-80
2021/10/05 10:57:00;;;;;;;1.10;0.80;;;;;;;;;;5036607;28;20505;-80
2021/10/05 10:59:26;;;;;;;1.13;0.40;;;;;;;;;;5036542;28;20025;-78
2021/10/05 11:01:52;;;;;;;0.93;0.50;;;;;;;;;;5035539;28;20037;-80
2021/10/05 11:04:20;;;;;;;0.65;0.30;;;;;;;;;;5054596;28;20128;-79
2021/10/05 11:06:52;;;;;;;2.35;0.40;;;;;;;;;;5038304;28;20021;-79
2021/10/05 11:09:18;;;;;;;2.00;0.60;;;;;;;;;;5037335;28;20031;-79
2021/10/05 11:11:46;;;;;;;0.40;0.40;;;;;;;;;;5034256;28;20033;-80
2021/10/05 11:14:20;;;;;;;0.65;0.40;;;;;;;;;;5034866;28;20494;-80
2021/10/05 11:16:52;;;;;;;1.05;0.50;;;;;;;;;;5037107;28;20387;-79
2021/10/05 11:19:18;;;;;;;0.63;0.40;;;;;;;;;;5036459;28;20084;-79
2021/10/05 11:21:46;;;;;;;1.02;0.40;;;;;;;;;;5024143;28;20033;-80
2021/10/05 11:24:14;;;;;;;1.27;0.50;;;;;;;;;;5038801;28;20067;-80
2021/10/05 11:26:45;;;;;;;0.70;0.30;;;;;;;;;;5036655;28;20025;-80
2021/10/05 11:29:11;;;;;;;2.38;0.35;;;;;;;;;;5018685;28;20033;-80
2021/10/05 11:31:45;;;;;;;2.63;0.45;;;;;;;;;;5018645;28;20478;-79
2021/10/05 11:34:11;;;;;;;0.88;0.55;;;;;;;;;;5053648;28;20033;-79
2021/10/05 11:36:37;;;;;;;0.90;0.60;;;;;;;;;;5055404;28;20032;-80
2021/10/05 11:39:04;;;;;;;0.70;0.40;;;;;;;;;;5038225;28;20021;-80
2021/10/05 11:41:37;;;;;;;0.65;0.50;;;;;;;;;;5057269;28;20397;-80
2021/10/05 11:44:12;;;;;;;1.00;0.30;;;;;;;;;;5056838;28;20033;-80
2021/10/05 11:46:39;;;;;;;1.20;0.40;;;;;;;;;;5057842;28;20033;-80
2021/10/05 11:49:05;;;;;;;0.82;0.45;;;;;;;;;;5043729;28;20029;-79
2021/10/05 11:51:43;;;;;;;0.88;0.40;;;;;;;;;;5056628;28;20040;-80
2021/10/05 11:54:16;;;;;;;0.47;0.32;;;;;;;;;;5056625;28;20025;-79
2021/10/05 11:56:42;;;;;;;0.95;0.52;;;;;;;;;;5038938;28;20050;-80
2021/10/05 11:59:08;;;;;;;1.30;0.35;;;;;;;;;;5025735;28;20040;-80
2021/10/05 12:01:34;;;;;;;0.98;0.40;;;;;;;;;;5058819;28;20029;-80
2021/10/05 12:04:08;;;;;;;0.70;0.50;;;;;;;;;;5026720;28;20061;-80
2021/10/05 12:06:35;;;;;;;1.58;0.50;;;;;;;;;;5039485;28;20056;-80
2021/10/05 12:09:03;;;;;;;2.65;0.43;;;;;;;;;;5041043;28;20037;-80
2021/10/05 12:11:44;;;;;;;0.80;0.40;;;;;;;;;;5022088;28;20026;-80
2021/10/05 12:14:11;;;;;;;0.90;0.45;;;;;;;;;;5037877;28;20025;-80
2021/10/05 12:16:38;;;;;;;1.58;0.38;;;;;;;;;;5040916;28;20029;-80
2021/10/05 12:19:04;;;;;;;0.38;0.28;;;;;;;;;;5045582;28;20025;-79
2021/10/05 12:21:30;;;;;;;1.02;0.40;;;;;;;;;;5065469;28;20061;-80
2021/10/05 12:23:57;;;;;;;0.80;0.40;;;;;;;;;;5061682;28;20041;-80
2021/10/05 12:26:24;;;;;;;0.77;0.38;;;;;;;;;;5055107;28;20038;-79
2021/10/05 12:28:56;;;;;;;0.75;0.40;;;;;;;;;;5062971;28;20029;-79
2021/10/05 12:31:22;;;;;;;1.23;0.40;;;;;;;;;;5064431;28;20116;-80
2021/10/05 12:33:55;;;;;;;0.73;0.40;;;;;;;;;;5060010;28;20284;-80
2021/10/05 12:36:21;;;;;;;2.15;0.40;;;;;;;;;;5059456;28;20025;-79
2021/10/05 12:38:47;;;;;;;1.65;0.25;;;;;;;;;;5045244;28;20045;-79
2021/10/05 12:41:14;;;;;;;0.20;0.20;;;;;;;;;;5021277;28;20143;-80
2021/10/05 12:43:41;;;;;;;2.13;0.30;;;;;;;;;;5034311;28;20033;-80
2021/10/05 12:46:08;;;;;;;0.57;0.35;;;;;;;;;;5058887;28;20044;-80
2021/10/05 12:48:36;;;;;;;1.02;0.40;;;;;;;;;;5028912;28;20029;-79
2021/10/05 12:51:11;;;;;;;4.80;0.50;;;;;;;;;;5020229;28;20420;-80
2021/10/05 12:53:37;;;;;;;2.78;0.40;;;;;;;;;;5039654;28;20025;-80
2021/10/05 12:56:04;;;;;;;0.98;0.40;;;;;;;;;;5049142;28;20383;-80
2021/10/05 12:58:30;;;;;;;0.85;0.40;;;;;;;;;;5058558;28;20025;-80
2021/10/05 13:00:56;;;;;;;0.75;0.28;;;;;;;;;;5046986;28;20112;-80
2021/10/05 13:03:23;;;;;;;0.60;0.40;;;;;;;;;;5056519;28;20036;-79
2021/10/05 13:05:50;;;;;;;0.77;0.30;;;;;;;;;;5070352;28;20025;-79
2021/10/05 13:08:16;;;;;;;0.32;0.30;;;;;;;;;;5060540;28;20036;-79
2021/10/05 13:10:42;;;;;;;0.82;0.28;;;;;;;;;;5044278;28;20033;-79
2021/10/05 13:13:08;;;;;;;0.60;0.30;;;;;;;;;;5047320;28;20104;-80
2021/10/05 13:15:34;;;;;;;0.43;0.25;;;;;;;;;;5058867;28;20047;-80
2021/10/05 13:18:00;;;;;;;0.50;0.40;;;;;;;;;;5034053;28;20036;-79
2021/10/05 13:20:26;;;;;;;0.47;0.30;;;;;;;;;;5049635;28;20029;-79
2021/10/05 13:22:53;;;;;;;0.60;0.25;;;;;;;;;;5050544;28;20026;-79
2021/10/05 13:25:19;;;;;;;0.50;0.30;;;;;;;;;;5040543;28;20051;-80
2021/10/05 13:27:45;;;;;;;1.77;0.20;;;;;;;;;;5044138;28;20504;-82
2021/10/05 13:30:11;;;;;;;2.05;0.20;;;;;;;;;;5057794;28;20397;-79
2021/10/05 13:32:39;;;;;;;0.38;0.20;;;;;;;;;;5053788;28;20025;-79
2021/10/05 13:35:05;;;;;;;0.55;0.30;;;;;;;;;;5037820;28;20014;-78
2021/10/05 13:37:32;;;;;;;0.25;0.20;;;;;;;;;;5041629;28;20099;-79
2021/10/05 13:39:58;;;;;;;1.00;0.20;;;;;;;;;;5057379;28;20028;-79
2021/10/05 13:42:24;;;;;;;0.25;0.15;;;;;;;;;;5052796;28;20033;-79
2021/10/05 13:44:51;;;;;;;0.17;0.13;;;;;;;;;;5058507;28;20073;-78
2021/10/05 13:47:17;;;;;;;0.68;0.30;;;;;;;;;;5056949;28;20032;-79
2021/10/05 13:49:43;;;;;;;0.30;0.10;;;;;;;;;;5043661;28;20025;-79
2021/10/05 13:52:09;;;;;;;1.00;0.20;;;;;;;;;;5046719;28;20067;-78
2021/10/05 13:54:35;;;;;;;0.20;0.10;;;;;;;;;;5064709;28;20029;-81
2021/10/05 13:57:01;;;;;;;0.40;0.25;;;;;;;;;;5039777;28;20035;-81
2021/10/05 13:59:27;;;;;;;0.17;0.10;;;;;;;;;;5038457;28;20033;-81
2021/10/05 14:01:53;;;;;;;0.30;0.10;;;;;;;;;;5039059;28;20029;-81
2021/10/05 14:04:20;;;;;;;0.38;0.10;;;;;;;;;;5057906;28;20036;-81
2021/10/05 14:06:46;;;;;;;0.10;0.10;;;;;;;;;;5057366;28;20503;-81
2021/10/05 14:09:14;;;;;;;0.70;0.25;;;;;;;;;;5022327;28;20033;-81
2021/10/05 14:11:40;;;;;;;0.75;0.22;;;;;;;;;;5036880;28;20025;-81
2021/10/05 14:14:06;;;;;;;0.15;0.10;;;;;;;;;;5054646;28;20047;-81
2021/10/05 14:16:33;;;;;;;0.20;0.10;;;;;;;;;;5058013;28;20080;-81
2021/10/05 14:18:59;;;;;;;1.15;0.40;;;;;;;;;;5056023;28;20021;-81
2021/10/05 14:21:25;;;;;;;0.30;0.20;;;;;;;;;;5043036;28;20040;-81
2021/10/05 14:23:51;;;;;;;0.43;0.20;;;;;;;;;;5053160;28;20056;-80
2021/10/05 14:26:18;;;;;;;1.13;0.20;;;;;;;;;;5041744;28;20065;-81
2021/10/05 14:28:44;;;;;;;1.27;0.40;;;;;;;;;;5041307;28;20037;-81
2021/10/05 14:31:10;;;;;;;0.40;0.10;;;;;;;;;;5046211;28;20056;-81